createdAt,value
2023-05-02T00:00:09.779Z,4.17
2023-05-02T00:02:38.019Z,4.37
2023-05-02T00:05:07.154Z,4.60
2023-05-02T00:07:35.349Z,4.40
2023-05-02T00:10:06.018Z,5.03
2023-05-02T00:12:34.588Z,5.70
2023-05-02T00:15:03.092Z,5.10
2023-05-02T00:17:31.298Z,4.90
2023-05-02T00:20:00.327Z,5.20
2023-05-02T00:22:28.987Z,5.37
2023-05-02T00:24:58.420Z,4.93
2023-05-02T00:27:27.846Z,4.33
2023-05-02T00:29:55.901Z,4.33
2023-05-02T00:32:24.007Z,4.90
2023-05-02T00:34:52.056Z,5.40
2023-05-02T00:37:20.272Z,5.27
2023-05-02T00:39:48.332Z,4.77
2023-05-02T00:42:16.574Z,4.30
2023-05-02T00:44:46.955Z,5.40
2023-05-02T00:47:15.847Z,5.30
2023-05-02T00:49:43.918Z,5.07
2023-05-02T00:52:12.205Z,4.83
2023-05-02T00:54:40.528Z,4.73
2023-05-02T00:57:09.132Z,5.20
2023-05-02T00:59:37.556Z,5.93
2023-05-02T01:02:21.688Z,5.80
2023-05-02T01:05:01.042Z,5.70
2023-05-02T01:07:55.502Z,7.27
2023-05-02T01:10:31.526Z,5.80
2023-05-02T01:13:04.579Z,6.20
2023-05-02T01:15:35.662Z,6.33
2023-05-02T01:18:07.789Z,7.30
2023-05-02T01:20:41.748Z,6.77
2023-05-02T01:23:18.492Z,5.90
2023-05-02T01:26:08.112Z,7.90
2023-05-02T01:28:54.715Z,7.37
2023-05-02T01:31:24.706Z,7.10
2023-05-02T01:33:54.890Z,7.53
2023-05-02T01:36:26.799Z,7.97
2023-05-02T01:38:57.509Z,9.73
2023-05-02T01:41:28.154Z,8.90
2023-05-02T01:44:00.190Z,9.10
2023-05-02T01:46:31.896Z,8.80
2023-05-02T01:49:02.500Z,9.70
2023-05-02T01:51:34.782Z,9.90
2023-05-02T01:54:06.149Z,9.40
2023-05-02T01:56:36.861Z,12.37
2023-05-02T01:59:08.829Z,10.73
2023-05-02T02:01:38.688Z,11.67
2023-05-02T02:04:09.695Z,11.13
2023-05-02T02:06:38.236Z,10.77
2023-05-02T02:09:06.692Z,10.80
2023-05-02T02:11:37.691Z,11.03
2023-05-02T02:14:13.481Z,11.60
2023-05-02T02:16:43.679Z,12.37
2023-05-02T02:19:15.452Z,12.53
2023-05-02T02:21:45.538Z,11.60
2023-05-02T02:24:14.471Z,11.33
2023-05-02T02:26:42.636Z,12.57
2023-05-02T02:29:12.311Z,12.80
2023-05-02T02:31:41.372Z,11.63
2023-05-02T02:34:09.845Z,12.30
2023-05-02T02:36:45.837Z,12.90
2023-05-02T02:39:24.376Z,12.00
2023-05-02T02:42:03.614Z,13.30
2023-05-02T02:44:44.994Z,12.20
2023-05-02T02:47:17.719Z,11.83
2023-05-02T02:49:50.514Z,13.20
2023-05-02T02:52:26.189Z,11.90
2023-05-02T02:54:59.244Z,11.87
2023-05-02T02:57:36.939Z,11.87
2023-05-02T03:00:12.993Z,10.67
2023-05-02T03:02:43.865Z,12.33
2023-05-02T03:05:12.691Z,11.33
2023-05-02T03:07:40.893Z,11.33
2023-05-02T03:10:11.837Z,10.23
2023-05-02T03:12:41.332Z,10.20
2023-05-02T03:15:32.976Z,10.27
2023-05-02T03:18:01.779Z,9.50
2023-05-02T03:20:30.220Z,10.47
2023-05-02T03:22:58.289Z,10.27
2023-05-02T03:25:26.308Z,8.33
2023-05-02T03:27:55.086Z,8.97
2023-05-02T03:30:24.577Z,8.60
2023-05-02T03:32:52.904Z,10.30
2023-05-02T03:35:21.025Z,10.67
2023-05-02T03:37:50.949Z,11.70
2023-05-02T03:40:21.702Z,10.43
2023-05-02T03:42:49.997Z,11.50
2023-05-02T03:45:26.585Z,10.30
2023-05-02T03:47:55.126Z,11.80
2023-05-02T03:50:24.097Z,11.47
2023-05-02T03:52:53.904Z,11.40
2023-05-02T03:55:29.734Z,11.00
2023-05-02T03:57:58.759Z,12.47
2023-05-02T04:00:28.190Z,11.60
2023-05-02T04:03:02.497Z,12.47
2023-05-02T04:05:31.873Z,12.77
2023-05-02T04:08:00.010Z,12.27
2023-05-02T04:10:28.115Z,12.77
2023-05-02T04:12:59.501Z,12.57
2023-05-02T04:15:28.891Z,12.90
2023-05-02T04:17:59.178Z,12.37
2023-05-02T04:20:27.506Z,12.77
2023-05-02T04:22:56.681Z,14.73
2023-05-02T04:25:24.790Z,15.40
2023-05-02T04:27:55.434Z,13.73
2023-05-02T04:30:25.116Z,15.17
2023-05-02T04:33:03.456Z,16.10
2023-05-02T04:35:35.154Z,15.60
2023-05-02T04:38:04.988Z,17.50
2023-05-02T04:40:33.709Z,15.50
2023-05-02T04:43:05.928Z,16.80
2023-05-02T04:45:41.692Z,17.00
2023-05-02T04:48:17.682Z,19.23
2023-05-02T04:50:47.053Z,18.40
2023-05-02T04:53:15.181Z,17.77
2023-05-02T04:55:43.999Z,19.40
2023-05-02T04:58:12.641Z,19.60
2023-05-02T05:00:41.715Z,18.30
2023-05-02T05:03:10.187Z,19.10
2023-05-02T05:05:39.731Z,18.83
2023-05-02T05:08:10.619Z,19.37
2023-05-02T05:10:40.370Z,19.00
2023-05-02T05:13:09.501Z,17.83
2023-05-02T05:15:37.944Z,17.60
2023-05-02T05:18:06.671Z,17.33
2023-05-02T05:20:34.823Z,17.87
2023-05-02T05:23:05.700Z,17.60
2023-05-02T05:25:34.488Z,17.27
2023-05-02T05:28:02.625Z,18.10
2023-05-02T05:30:32.713Z,17.27
2023-05-02T05:33:02.203Z,17.10
2023-05-02T05:35:30.270Z,16.13
2023-05-02T05:38:00.272Z,15.73
2023-05-02T05:40:30.229Z,16.47
2023-05-02T05:42:59.765Z,15.93
2023-05-02T05:45:32.397Z,15.90
2023-05-02T05:48:00.520Z,15.50
2023-05-02T05:50:31.953Z,14.80
2023-05-02T05:53:00.098Z,14.23
2023-05-02T05:55:30.213Z,13.93
2023-05-02T05:57:59.013Z,13.27
2023-05-02T06:00:27.226Z,13.10
2023-05-02T06:02:55.358Z,13.30
2023-05-02T06:05:29.294Z,13.20
2023-05-02T06:07:57.489Z,14.20
2023-05-02T06:10:25.917Z,15.47
2023-05-02T06:12:55.716Z,14.90
2023-05-02T06:15:28.224Z,15.73
2023-05-02T06:17:56.316Z,14.17
2023-05-02T06:20:24.538Z,14.40
2023-05-02T06:22:52.615Z,15.40
2023-05-02T06:25:21.013Z,12.87
2023-05-02T06:27:49.265Z,14.13
2023-05-02T06:30:18.849Z,13.47
2023-05-02T06:32:46.912Z,12.83
2023-05-02T06:35:15.128Z,12.37
2023-05-02T06:37:43.559Z,13.90
2023-05-02T06:40:13.476Z,12.20
2023-05-02T06:42:41.502Z,13.70
2023-05-02T06:45:09.966Z,13.77
2023-05-02T06:47:39.350Z,13.00
2023-05-02T06:50:08.820Z,13.10
2023-05-02T06:52:36.868Z,14.50
2023-05-02T06:55:05.465Z,14.27
2023-05-02T06:57:33.537Z,14.87
2023-05-02T07:00:02.068Z,15.67
2023-05-02T07:02:30.392Z,14.70
2023-05-02T07:04:59.914Z,13.10
2023-05-02T07:07:27.980Z,14.60
2023-05-02T07:09:56.090Z,14.27
2023-05-02T07:12:24.259Z,15.20
2023-05-02T07:14:52.316Z,12.87
2023-05-02T07:17:20.863Z,13.83
2023-05-02T07:19:48.942Z,14.50
2023-05-02T07:22:18.369Z,12.30
2023-05-02T07:24:46.541Z,12.37
2023-05-02T07:27:14.842Z,12.40
2023-05-02T07:29:43.345Z,13.43
2023-05-02T07:32:11.470Z,12.10
2023-05-02T07:34:39.791Z,12.20
2023-05-02T07:37:07.858Z,12.17
2023-05-02T07:39:37.252Z,12.23
2023-05-02T07:42:06.528Z,12.97
2023-05-02T07:44:34.991Z,12.73
2023-05-02T07:47:03.162Z,12.57
2023-05-02T07:49:31.470Z,13.00
2023-05-02T07:51:59.518Z,12.80
2023-05-02T07:54:27.782Z,12.43
2023-05-02T07:56:58.743Z,13.23
2023-05-02T07:59:27.392Z,12.60
2023-05-02T08:01:55.878Z,12.50
2023-05-02T08:04:24.016Z,13.83
2023-05-02T08:06:52.338Z,13.63
2023-05-02T08:09:20.575Z,12.10
2023-05-02T08:11:48.572Z,12.30
2023-05-02T08:14:17.963Z,12.10
2023-05-02T08:16:46.797Z,12.53
2023-05-02T08:19:14.969Z,10.83
2023-05-02T08:21:43.765Z,12.13
2023-05-02T08:24:11.828Z,11.77
2023-05-02T08:26:39.902Z,13.67
2023-05-02T08:29:07.985Z,11.47
2023-05-02T08:31:37.423Z,12.20
2023-05-02T08:34:05.802Z,11.77
2023-05-02T08:36:33.899Z,11.73
2023-05-02T08:39:02.014Z,11.50
2023-05-02T08:41:31.141Z,10.90
2023-05-02T08:44:00.846Z,12.60
2023-05-02T08:46:30.801Z,11.63
2023-05-02T08:49:01.001Z,11.97
2023-05-02T08:51:32.476Z,10.70
2023-05-02T08:54:02.591Z,11.10
2023-05-02T08:56:30.879Z,10.67
2023-05-02T08:58:58.886Z,11.43
2023-05-02T09:01:32.073Z,9.00
2023-05-02T09:04:01.561Z,11.13
2023-05-02T09:06:30.178Z,11.00
2023-05-02T09:09:01.536Z,9.87
2023-05-02T09:11:30.511Z,7.97
2023-05-02T09:14:03.837Z,8.97
2023-05-02T09:16:40.084Z,7.03
2023-05-02T09:19:09.950Z,7.07
2023-05-02T09:21:39.989Z,6.57
2023-05-02T09:24:17.355Z,7.00
2023-05-02T09:26:58.294Z,7.50
2023-05-02T09:29:28.031Z,7.37
2023-05-02T09:31:56.896Z,7.50
2023-05-02T09:34:26.433Z,6.93
2023-05-02T09:36:54.905Z,7.40
2023-05-02T09:39:25.827Z,5.67
2023-05-02T09:41:54.905Z,7.70
2023-05-02T09:44:24.821Z,5.90
2023-05-02T09:46:54.409Z,6.00
2023-05-02T09:49:40.779Z,6.23
2023-05-02T09:52:13.119Z,6.10
2023-05-02T09:54:41.215Z,6.13
2023-05-02T09:57:12.966Z,4.80
2023-05-02T09:59:41.771Z,5.07
2023-05-02T10:02:12.012Z,4.77
2023-05-02T10:04:43.279Z,5.10
2023-05-02T10:07:12.199Z,5.37
2023-05-02T10:09:45.285Z,4.20
2023-05-02T10:12:16.802Z,4.57
2023-05-02T10:14:50.689Z,4.33
2023-05-02T10:17:24.192Z,4.47
2023-05-02T10:19:58.681Z,4.10
2023-05-02T10:22:27.620Z,3.70
2023-05-02T10:24:58.854Z,3.10
2023-05-02T10:27:27.143Z,3.20
2023-05-02T10:29:56.138Z,3.20
2023-05-02T10:32:25.681Z,2.93
2023-05-02T10:34:57.803Z,2.67
2023-05-02T10:37:26.603Z,2.57
2023-05-02T10:39:54.765Z,2.80
2023-05-02T10:42:23.679Z,2.30
2023-05-02T10:44:52.105Z,2.10
2023-05-02T10:47:21.319Z,2.80
2023-05-02T10:49:53.157Z,2.40
2023-05-02T10:52:30.108Z,2.07
2023-05-02T10:55:18.179Z,2.30
2023-05-02T10:58:24.256Z,1.70
2023-05-02T11:00:52.730Z,1.80
2023-05-02T11:03:55.354Z,1.90
2023-05-02T11:06:23.511Z,2.37
2023-05-02T11:08:53.179Z,2.10
2023-05-02T11:11:40.755Z,1.50
2023-05-02T11:14:09.088Z,1.40
2023-05-02T11:17:07.564Z,1.87
2023-05-02T11:20:09.074Z,1.93
2023-05-02T11:22:37.115Z,1.93
2023-05-02T11:25:06.835Z,1.67
2023-05-02T11:27:39.231Z,2.00
2023-05-02T11:30:09.497Z,2.37
2023-05-02T11:33:12.893Z,2.33
2023-05-02T11:35:43.407Z,2.90
2023-05-02T11:38:13.032Z,3.47
2023-05-02T11:40:50.810Z,3.00
2023-05-02T11:43:21.445Z,3.00
2023-05-02T11:45:50.077Z,3.00
2023-05-02T11:48:19.601Z,3.47
2023-05-02T11:50:50.641Z,4.00
2023-05-02T11:53:22.315Z,2.73
2023-05-02T11:55:53.207Z,2.60
2023-05-02T11:58:22.982Z,3.10
2023-05-02T12:00:52.497Z,2.43
2023-05-02T12:03:29.777Z,2.80
2023-05-02T12:05:58.764Z,2.57
2023-05-02T12:08:28.327Z,3.00
2023-05-02T12:10:58.391Z,3.00
2023-05-02T12:13:27.816Z,3.00
2023-05-02T12:15:56.631Z,2.00
2023-05-02T12:18:27.073Z,2.40
2023-05-02T12:20:56.982Z,2.67
2023-05-02T12:23:27.226Z,2.80
2023-05-02T12:25:56.652Z,3.00
2023-05-02T12:28:24.862Z,3.00
2023-05-02T12:30:53.227Z,3.13
2023-05-02T12:33:22.373Z,3.60
2023-05-02T12:35:51.002Z,3.00
2023-05-02T12:38:22.892Z,2.40
2023-05-02T12:40:53.349Z,3.10
2023-05-02T12:43:22.824Z,2.67
2023-05-02T12:45:53.818Z,2.60
2023-05-02T12:48:24.080Z,3.07
2023-05-02T12:50:52.377Z,3.33
2023-05-02T12:53:45.852Z,2.47
2023-05-02T12:56:14.696Z,2.37
2023-05-02T12:58:45.831Z,2.13
2023-05-02T13:01:15.083Z,2.43
2023-05-02T13:03:44.758Z,2.10
2023-05-02T13:06:12.987Z,2.40
2023-05-02T13:08:41.087Z,2.70
2023-05-02T13:11:09.115Z,3.10
2023-05-02T13:13:37.177Z,2.43
2023-05-02T13:16:07.928Z,2.97
2023-05-02T13:18:36.152Z,2.23
2023-05-02T13:21:04.976Z,2.60
2023-05-02T13:23:33.017Z,2.23
2023-05-02T13:26:01.083Z,2.73
2023-05-02T13:28:33.135Z,2.33
2023-05-02T13:31:01.375Z,2.03
2023-05-02T13:33:30.884Z,1.93
2023-05-02T13:35:59.110Z,2.27
2023-05-02T13:38:27.202Z,2.83
2023-05-02T13:40:55.299Z,3.00
2023-05-02T13:43:24.276Z,2.43
2023-05-02T13:45:52.496Z,2.23
2023-05-02T13:48:20.707Z,2.10
2023-05-02T13:50:50.185Z,2.37
2023-05-02T13:53:18.384Z,2.27
2023-05-02T13:55:46.582Z,2.50
2023-05-02T13:58:14.630Z,2.17
2023-05-02T14:00:42.689Z,2.60
2023-05-02T14:03:11.604Z,3.30
2023-05-02T14:05:43.474Z,2.83
2023-05-02T14:08:18.083Z,2.80
2023-05-02T14:10:46.361Z,2.97
2023-05-02T14:13:14.392Z,3.53
2023-05-02T14:15:42.448Z,3.33
2023-05-02T14:18:10.618Z,2.77
2023-05-02T14:20:38.668Z,2.57
2023-05-02T14:23:07.553Z,3.50
2023-05-02T14:25:37.339Z,3.10
2023-05-02T14:28:06.221Z,2.90
2023-05-02T14:30:34.380Z,3.20
2023-05-02T14:33:02.772Z,2.77
2023-05-02T14:35:30.889Z,3.10
2023-05-02T14:37:59.174Z,2.90
2023-05-02T14:40:27.690Z,3.30
2023-05-02T14:42:57.593Z,3.60
2023-05-02T14:45:25.878Z,3.80
2023-05-02T14:47:54.128Z,3.60
2023-05-02T14:50:22.291Z,3.10
2023-05-02T14:52:50.387Z,3.27
2023-05-02T14:55:18.598Z,3.73
2023-05-02T14:57:47.182Z,4.27
2023-05-02T15:00:17.977Z,3.53
2023-05-02T15:02:46.166Z,3.30
2023-05-02T15:05:14.308Z,4.10
2023-05-02T15:07:42.346Z,3.93
2023-05-02T15:10:10.566Z,4.47
2023-05-02T15:12:38.672Z,3.17
2023-05-02T15:15:09.111Z,3.43
2023-05-02T15:17:39.107Z,3.43
2023-05-02T15:20:08.388Z,3.07
2023-05-02T15:22:36.438Z,3.90
2023-05-02T15:25:05.409Z,2.70
2023-05-02T15:27:33.569Z,2.80
2023-05-02T15:30:02.723Z,3.13
2023-05-02T15:32:31.671Z,2.90
2023-05-02T15:35:01.156Z,2.60
2023-05-02T15:37:29.257Z,2.13
2023-05-02T15:39:57.339Z,2.60
2023-05-02T15:42:25.378Z,2.70
2023-05-02T15:44:54.022Z,2.63
2023-05-02T15:47:23.191Z,2.63
2023-05-02T15:49:53.876Z,2.23
2023-05-02T15:52:23.367Z,2.43
2023-05-02T15:54:51.765Z,2.20
2023-05-02T15:57:21.950Z,2.63
2023-05-02T15:59:49.998Z,3.03
2023-05-02T16:02:18.040Z,2.80
2023-05-02T16:04:46.501Z,2.57
2023-05-02T16:07:14.759Z,2.87
2023-05-02T16:09:44.129Z,3.60
2023-05-02T16:12:12.214Z,2.93
2023-05-02T16:14:40.272Z,3.13
2023-05-02T16:17:08.321Z,4.30
2023-05-02T16:19:36.339Z,2.97
2023-05-02T16:22:04.360Z,3.00
2023-05-02T16:24:32.436Z,3.10
2023-05-02T16:27:01.834Z,3.17
2023-05-02T16:29:29.901Z,2.87
2023-05-02T16:31:58.005Z,2.83
2023-05-02T16:34:26.134Z,2.93
2023-05-02T16:36:54.544Z,2.87
2023-05-02T16:39:22.683Z,2.90
2023-05-02T16:41:50.823Z,2.90
2023-05-02T16:44:20.235Z,4.00
2023-05-02T16:46:48.322Z,2.90
2023-05-02T16:49:16.351Z,2.80
2023-05-02T16:51:44.456Z,2.40
2023-05-02T16:54:12.540Z,2.53
2023-05-02T16:56:42.484Z,2.40
2023-05-02T16:59:10.745Z,2.80
2023-05-02T17:01:40.135Z,2.60
2023-05-02T17:04:08.731Z,3.23
2023-05-02T17:06:36.757Z,2.90
2023-05-02T17:09:05.189Z,2.50
2023-05-02T17:11:33.238Z,2.30
2023-05-02T17:14:02.023Z,2.30
2023-05-02T17:16:30.128Z,2.37
2023-05-02T17:18:59.552Z,2.37
2023-05-02T17:21:27.759Z,1.90
2023-05-02T17:23:55.869Z,2.47
2023-05-02T17:26:23.973Z,1.87
2023-05-02T17:28:53.613Z,2.00
2023-05-02T17:31:22.231Z,1.73
2023-05-02T17:33:50.358Z,1.90
2023-05-02T17:36:19.734Z,2.10
2023-05-02T17:38:47.782Z,1.80
2023-05-02T17:41:16.330Z,1.60
2023-05-02T17:43:44.493Z,1.90
2023-05-02T17:46:12.549Z,2.27
2023-05-02T17:48:44.209Z,1.90
2023-05-02T17:51:12.774Z,1.87
2023-05-02T17:53:42.578Z,1.70
2023-05-02T17:56:10.621Z,1.83
2023-05-02T17:58:38.643Z,1.87
2023-05-02T18:01:09.832Z,1.70
2023-05-02T18:03:38.753Z,1.63
2023-05-02T18:06:07.397Z,1.97
2023-05-02T18:08:35.551Z,1.90
2023-05-02T18:11:04.996Z,1.83
2023-05-02T18:13:34.406Z,1.70
2023-05-02T18:16:04.593Z,1.90
2023-05-02T18:18:33.016Z,1.63
2023-05-02T18:21:01.079Z,1.90
2023-05-02T18:23:29.135Z,1.80
2023-05-02T18:25:57.143Z,1.60
2023-05-02T18:28:26.549Z,2.00
2023-05-02T18:30:54.668Z,2.30
2023-05-02T18:33:22.940Z,1.73
2023-05-02T18:35:51.004Z,2.03
2023-05-02T18:38:20.226Z,1.90
2023-05-02T18:40:48.259Z,1.87
2023-05-02T18:43:16.315Z,2.10
2023-05-02T18:45:45.725Z,2.10
2023-05-02T18:48:13.900Z,2.00
2023-05-02T18:50:42.408Z,1.80
2023-05-02T18:53:10.420Z,2.23
2023-05-02T18:55:38.492Z,1.97
2023-05-02T18:58:06.554Z,2.00
2023-05-02T19:00:36.386Z,2.20
2023-05-02T19:03:06.568Z,1.80
2023-05-02T19:05:35.502Z,2.43
2023-05-02T19:08:05.368Z,2.17
2023-05-02T19:10:33.801Z,1.97
2023-05-02T19:13:01.881Z,2.00
2023-05-02T19:15:30.007Z,2.30
2023-05-02T19:17:58.751Z,2.73
2023-05-02T19:20:29.296Z,2.10
2023-05-02T19:23:10.971Z,2.10
2023-05-02T19:25:45.912Z,2.50
2023-05-02T19:28:15.658Z,2.03
2023-05-02T19:30:44.730Z,2.87
2023-05-02T19:33:12.904Z,2.70
2023-05-02T19:35:42.443Z,1.90
2023-05-02T19:38:10.647Z,2.10
2023-05-02T19:40:38.702Z,2.03
2023-05-02T19:43:06.815Z,2.43
2023-05-02T19:45:35.164Z,3.07
2023-05-02T19:48:03.521Z,2.67
2023-05-02T19:50:33.199Z,2.10
2023-05-02T19:53:04.296Z,2.47
2023-05-02T19:55:32.338Z,2.60
2023-05-02T19:58:01.848Z,2.50
2023-05-02T20:00:30.078Z,2.50
2023-05-02T20:02:58.505Z,2.37
2023-05-02T20:05:26.665Z,2.07
2023-05-02T20:07:54.744Z,2.30
2023-05-02T20:10:24.260Z,2.30
2023-05-02T20:12:52.300Z,2.10
2023-05-02T20:15:21.546Z,2.00
2023-05-02T20:17:49.662Z,2.13
2023-05-02T20:20:17.728Z,2.20
2023-05-02T20:22:45.747Z,2.10
2023-05-02T20:25:15.064Z,2.40
2023-05-02T20:27:44.442Z,2.07
2023-05-02T20:30:12.998Z,4.70
2023-05-02T20:32:41.058Z,5.50
2023-05-02T20:35:09.831Z,2.57
2023-05-02T20:37:38.022Z,3.30
2023-05-02T20:40:09.893Z,2.20
2023-05-02T20:42:41.386Z,2.13
2023-05-02T20:45:13.866Z,2.27
2023-05-02T20:47:42.083Z,2.60
2023-05-02T20:50:11.055Z,2.20
2023-05-02T20:52:39.380Z,2.63
2023-05-02T20:55:08.152Z,2.27
2023-05-02T20:57:36.375Z,1.80
2023-05-02T21:00:05.182Z,3.60
2023-05-02T21:02:36.346Z,2.20
2023-05-02T21:05:04.584Z,2.80
2023-05-02T21:07:32.849Z,2.13
2023-05-02T21:10:01.377Z,2.37
2023-05-02T21:12:29.763Z,2.60
2023-05-02T21:14:57.874Z,3.20
2023-05-02T21:17:26.771Z,2.60
2023-05-02T21:19:56.674Z,2.53
2023-05-02T21:22:24.771Z,2.53
2023-05-02T21:24:52.877Z,2.10
2023-05-02T21:27:21.068Z,2.90
2023-05-02T21:29:49.464Z,2.40
2023-05-02T21:32:17.540Z,2.40
2023-05-02T21:34:45.659Z,2.27
2023-05-02T21:37:15.089Z,2.47
2023-05-02T21:39:43.116Z,2.10
2023-05-02T21:42:11.172Z,2.57
2023-05-02T21:44:39.254Z,2.63
2023-05-02T21:47:07.378Z,2.40
2023-05-02T21:49:35.515Z,2.50
2023-05-02T21:52:03.800Z,2.60
2023-05-02T21:54:33.324Z,2.53
2023-05-02T21:57:02.511Z,3.27
2023-05-02T21:59:30.587Z,2.40
2023-05-02T22:01:58.652Z,3.47
2023-05-02T22:04:26.824Z,2.93
2023-05-02T22:06:54.965Z,3.07
2023-05-02T22:09:23.095Z,2.80
2023-05-02T22:11:53.361Z,3.20
2023-05-02T22:14:25.459Z,3.20
2023-05-02T22:17:01.299Z,3.03
2023-05-02T22:19:29.480Z,3.07
2023-05-02T22:22:01.444Z,3.40
2023-05-02T22:24:29.690Z,3.10
2023-05-02T22:26:59.048Z,2.80
2023-05-02T22:29:27.099Z,2.77
2023-05-02T22:31:55.212Z,3.20
2023-05-02T22:34:23.342Z,2.80
2023-05-02T22:36:51.718Z,3.20
2023-05-02T22:39:20.254Z,3.37
2023-05-02T22:41:48.293Z,3.00
2023-05-02T22:44:17.749Z,3.20
2023-05-02T22:46:45.880Z,2.93
2023-05-02T22:49:13.980Z,4.70
2023-05-02T22:51:42.782Z,3.40
2023-05-02T22:54:10.815Z,2.77
2023-05-02T22:56:38.927Z,3.07
2023-05-02T22:59:06.915Z,3.07
2023-05-02T23:01:36.278Z,3.17
2023-05-02T23:04:04.557Z,2.70
2023-05-02T23:06:32.738Z,2.80
2023-05-02T23:09:00.772Z,2.90
2023-05-02T23:11:29.133Z,3.83
2023-05-02T23:13:57.181Z,3.20
2023-05-02T23:16:25.927Z,3.33
2023-05-02T23:18:55.814Z,3.00
2023-05-02T23:21:23.817Z,3.10
2023-05-02T23:23:51.838Z,3.07
2023-05-02T23:26:20.104Z,3.17
2023-05-02T23:28:48.137Z,3.00
2023-05-02T23:31:16.274Z,2.83
2023-05-02T23:33:44.360Z,3.17
2023-05-02T23:36:13.685Z,2.77
2023-05-02T23:38:42.063Z,2.73
2023-05-02T23:41:10.121Z,2.90
2023-05-02T23:43:38.236Z,2.90
2023-05-02T23:46:06.348Z,3.17
2023-05-02T23:48:34.361Z,3.10
2023-05-02T23:51:02.396Z,2.60
2023-05-02T23:53:31.747Z,2.87
2023-05-02T23:55:59.766Z,3.00
2023-05-02T23:58:27.804Z,2.60
